sensor_id;sensor_type;location;lat;lon;timestamp;temperature;humidity
22645;DHT22;11489;50.834;6.752;2023-06-14T00:01:03;18.30;43.40
22645;DHT22;11489;50.834;6.752;2023-06-14T00:03:31;18.30;43.60
22645;DHT22;11489;50.834;6.752;2023-06-14T00:05:57;18.20;44.30
22645;DHT22;11489;50.834;6.752;2023-06-14T00:08:23;18.10;44.00
22645;DHT22;11489;50.834;6.752;2023-06-14T00:10:50;18.10;44.20
22645;DHT22;11489;50.834;6.752;2023-06-14T00:13:15;18.00;44.40
22645;DHT22;11489;50.834;6.752;2023-06-14T00:15:41;17.80;44.60
22645;DHT22;11489;50.834;6.752;2023-06-14T00:18:08;17.70;44.80
22645;DHT22;11489;50.834;6.752;2023-06-14T00:20:37;17.60;45.10
22645;DHT22;11489;50.834;6.752;2023-06-14T00:23:02;17.50;45.20
22645;DHT22;11489;50.834;6.752;2023-06-14T00:25:28;17.40;45.40
22645;DHT22;11489;50.834;6.752;2023-06-14T00:27:55;17.30;45.70
22645;DHT22;11489;50.834;6.752;2023-06-14T00:30:21;17.20;45.90
22645;DHT22;11489;50.834;6.752;2023-06-14T00:32:47;17.20;46.10
22645;DHT22;11489;50.834;6.752;2023-06-14T00:35:13;17.00;46.30
22645;DHT22;11489;50.834;6.752;2023-06-14T00:37:39;16.90;46.50
22645;DHT22;11489;50.834;6.752;2023-06-14T00:40:06;16.80;46.80
22645;DHT22;11489;50.834;6.752;2023-06-14T00:42:32;16.70;46.90
22645;DHT22;11489;50.834;6.752;2023-06-14T00:44:59;16.60;47.10
22645;DHT22;11489;50.834;6.752;2023-06-14T00:47:25;16.50;47.40
22645;DHT22;11489;50.834;6.752;2023-06-14T00:49:50;16.40;47.60
22645;DHT22;11489;50.834;6.752;2023-06-14T00:52:17;16.30;47.90
22645;DHT22;11489;50.834;6.752;2023-06-14T00:54:43;16.20;48.10
22645;DHT22;11489;50.834;6.752;2023-06-14T00:57:10;16.10;48.20
22645;DHT22;11489;50.834;6.752;2023-06-14T00:59:44;16.00;48.40
22645;DHT22;11489;50.834;6.752;2023-06-14T01:02:11;15.90;49.30
22645;DHT22;11489;50.834;6.752;2023-06-14T01:04:38;15.80;48.90
22645;DHT22;11489;50.834;6.752;2023-06-14T01:10:04;15.60;50.00
22645;DHT22;11489;50.834;6.752;2023-06-14T01:12:44;15.50;50.00
22645;DHT22;11489;50.834;6.752;2023-06-14T01:15:13;15.40;50.30
22645;DHT22;11489;50.834;6.752;2023-06-14T01:17:41;15.30;50.00
22645;DHT22;11489;50.834;6.752;2023-06-14T01:20:13;15.10;50.30
22645;DHT22;11489;50.834;6.752;2023-06-14T01:22:55;15.10;50.70
22645;DHT22;11489;50.834;6.752;2023-06-14T01:25:22;15.00;51.90
22645;DHT22;11489;50.834;6.752;2023-06-14T01:28:02;14.80;50.90
22645;DHT22;11489;50.834;6.752;2023-06-14T01:30:29;14.70;52.10
22645;DHT22;11489;50.834;6.752;2023-06-14T01:32:56;14.60;51.40
22645;DHT22;11489;50.834;6.752;2023-06-14T01:35:23;14.50;51.60
22645;DHT22;11489;50.834;6.752;2023-06-14T01:37:49;14.40;51.90
22645;DHT22;11489;50.834;6.752;2023-06-14T01:40:16;14.30;52.10
22645;DHT22;11489;50.834;6.752;2023-06-14T01:42:43;14.20;52.40
22645;DHT22;11489;50.834;6.752;2023-06-14T01:45:10;14.20;52.70
22645;DHT22;11489;50.834;6.752;2023-06-14T01:47:37;14.10;52.80
22645;DHT22;11489;50.834;6.752;2023-06-14T01:50:03;14.10;53.10
22645;DHT22;11489;50.834;6.752;2023-06-14T01:52:29;14.00;53.30
22645;DHT22;11489;50.834;6.752;2023-06-14T01:54:55;13.90;53.40
22645;DHT22;11489;50.834;6.752;2023-06-14T01:57:21;13.90;53.60
22645;DHT22;11489;50.834;6.752;2023-06-14T01:59:47;13.90;53.80
22645;DHT22;11489;50.834;6.752;2023-06-14T02:02:14;13.80;53.90
22645;DHT22;11489;50.834;6.752;2023-06-14T02:04:41;13.80;54.20
22645;DHT22;11489;50.834;6.752;2023-06-14T02:07:07;13.70;54.40
22645;DHT22;11489;50.834;6.752;2023-06-14T02:09:34;13.70;54.60
22645;DHT22;11489;50.834;6.752;2023-06-14T02:12:01;13.70;54.80
22645;DHT22;11489;50.834;6.752;2023-06-14T02:14:27;13.60;54.80
22645;DHT22;11489;50.834;6.752;2023-06-14T02:16:53;13.60;55.00
22645;DHT22;11489;50.834;6.752;2023-06-14T02:19:19;13.60;55.10
22645;DHT22;11489;50.834;6.752;2023-06-14T02:21:46;13.50;55.30
22645;DHT22;11489;50.834;6.752;2023-06-14T02:24:12;13.50;55.40
22645;DHT22;11489;50.834;6.752;2023-06-14T02:26:38;13.50;55.50
22645;DHT22;11489;50.834;6.752;2023-06-14T02:29:05;13.40;55.60
22645;DHT22;11489;50.834;6.752;2023-06-14T02:31:31;13.40;55.70
22645;DHT22;11489;50.834;6.752;2023-06-14T02:33:57;13.30;55.80
22645;DHT22;11489;50.834;6.752;2023-06-14T02:36:23;13.30;56.00
22645;DHT22;11489;50.834;6.752;2023-06-14T02:38:49;13.30;56.10
22645;DHT22;11489;50.834;6.752;2023-06-14T02:41:15;13.20;56.10
22645;DHT22;11489;50.834;6.752;2023-06-14T02:43:40;13.20;56.30
22645;DHT22;11489;50.834;6.752;2023-06-14T02:46:07;13.10;56.40
22645;DHT22;11489;50.834;6.752;2023-06-14T02:48:32;13.10;56.60
22645;DHT22;11489;50.834;6.752;2023-06-14T02:50:58;13.00;56.70
22645;DHT22;11489;50.834;6.752;2023-06-14T02:53:24;13.00;56.80
22645;DHT22;11489;50.834;6.752;2023-06-14T02:55:49;13.00;57.00
22645;DHT22;11489;50.834;6.752;2023-06-14T02:58:15;12.90;57.10
22645;DHT22;11489;50.834;6.752;2023-06-14T03:00:42;12.90;57.30
22645;DHT22;11489;50.834;6.752;2023-06-14T03:03:08;12.90;57.50
22645;DHT22;11489;50.834;6.752;2023-06-14T03:05:43;12.80;57.50
22645;DHT22;11489;50.834;6.752;2023-06-14T03:08:12;12.80;57.80
22645;DHT22;11489;50.834;6.752;2023-06-14T03:10:48;12.80;57.70
22645;DHT22;11489;50.834;6.752;2023-06-14T03:13:15;12.70;58.40
22645;DHT22;11489;50.834;6.752;2023-06-14T03:15:42;12.70;58.00
22645;DHT22;11489;50.834;6.752;2023-06-14T03:18:09;12.70;58.10
22645;DHT22;11489;50.834;6.752;2023-06-14T03:20:38;12.60;58.10
22645;DHT22;11489;50.834;6.752;2023-06-14T03:23:04;12.60;58.60
22645;DHT22;11489;50.834;6.752;2023-06-14T03:25:31;12.60;58.50
22645;DHT22;11489;50.834;6.752;2023-06-14T03:27:58;12.50;58.60
22645;DHT22;11489;50.834;6.752;2023-06-14T03:30:24;12.50;58.70
22645;DHT22;11489;50.834;6.752;2023-06-14T03:32:50;12.50;58.90
22645;DHT22;11489;50.834;6.752;2023-06-14T03:35:19;12.40;58.90
22645;DHT22;11489;50.834;6.752;2023-06-14T03:37:45;12.40;59.10
22645;DHT22;11489;50.834;6.752;2023-06-14T03:40:12;12.50;59.30
22645;DHT22;11489;50.834;6.752;2023-06-14T03:42:47;12.50;59.50
22645;DHT22;11489;50.834;6.752;2023-06-14T03:45:13;12.60;59.60
22645;DHT22;11489;50.834;6.752;2023-06-14T03:47:39;12.60;59.80
22645;DHT22;11489;50.834;6.752;2023-06-14T03:50:05;12.70;60.00
22645;DHT22;11489;50.834;6.752;2023-06-14T03:52:31;12.90;60.10
22645;DHT22;11489;50.834;6.752;2023-06-14T03:54:58;13.00;60.20
22645;DHT22;11489;50.834;6.752;2023-06-14T03:57:26;13.10;60.10
22645;DHT22;11489;50.834;6.752;2023-06-14T03:59:51;13.30;60.10
22645;DHT22;11489;50.834;6.752;2023-06-14T04:02:20;13.40;60.00
22645;DHT22;11489;50.834;6.752;2023-06-14T04:04:46;13.50;60.10
22645;DHT22;11489;50.834;6.752;2023-06-14T04:07:14;13.70;60.00
22645;DHT22;11489;50.834;6.752;2023-06-14T04:09:41;13.90;60.00
22645;DHT22;11489;50.834;6.752;2023-06-14T04:12:07;14.10;60.00
22645;DHT22;11489;50.834;6.752;2023-06-14T04:14:37;14.40;60.10
22645;DHT22;11489;50.834;6.752;2023-06-14T04:17:03;14.60;59.90
22645;DHT22;11489;50.834;6.752;2023-06-14T04:19:29;14.90;59.90
22645;DHT22;11489;50.834;6.752;2023-06-14T04:21:54;15.20;59.80
22645;DHT22;11489;50.834;6.752;2023-06-14T04:24:21;15.50;59.70
22645;DHT22;11489;50.834;6.752;2023-06-14T04:26:46;15.90;59.50
22645;DHT22;11489;50.834;6.752;2023-06-14T04:29:16;16.20;59.30
22645;DHT22;11489;50.834;6.752;2023-06-14T04:31:45;16.60;59.00
22645;DHT22;11489;50.834;6.752;2023-06-14T04:34:11;16.90;58.60
22645;DHT22;11489;50.834;6.752;2023-06-14T04:36:42;17.20;58.20
22645;DHT22;11489;50.834;6.752;2023-06-14T04:39:18;17.50;57.70
22645;DHT22;11489;50.834;6.752;2023-06-14T04:41:44;17.60;57.10
22645;DHT22;11489;50.834;6.752;2023-06-14T04:44:10;17.80;56.40
22645;DHT22;11489;50.834;6.752;2023-06-14T04:46:38;17.90;55.80
22645;DHT22;11489;50.834;6.752;2023-06-14T04:49:17;17.80;55.20
22645;DHT22;11489;50.834;6.752;2023-06-14T04:51:44;17.80;54.90
22645;DHT22;11489;50.834;6.752;2023-06-14T04:54:11;17.70;54.50
22645;DHT22;11489;50.834;6.752;2023-06-14T04:56:41;17.70;54.50
22645;DHT22;11489;50.834;6.752;2023-06-14T04:59:08;17.50;54.40
22645;DHT22;11489;50.834;6.752;2023-06-14T05:01:34;17.40;54.60
22645;DHT22;11489;50.834;6.752;2023-06-14T05:04:01;17.30;54.60
22645;DHT22;11489;50.834;6.752;2023-06-14T05:06:26;17.20;54.70
22645;DHT22;11489;50.834;6.752;2023-06-14T05:08:56;17.10;54.80
22645;DHT22;11489;50.834;6.752;2023-06-14T05:11:21;17.00;54.90
22645;DHT22;11489;50.834;6.752;2023-06-14T05:13:50;17.00;55.70
22645;DHT22;11489;50.834;6.752;2023-06-14T05:16:16;17.00;55.60
22645;DHT22;11489;50.834;6.752;2023-06-14T05:18:42;16.90;55.40
22645;DHT22;11489;50.834;6.752;2023-06-14T05:21:08;16.80;55.50
22645;DHT22;11489;50.834;6.752;2023-06-14T05:23:34;16.80;55.70
22645;DHT22;11489;50.834;6.752;2023-06-14T05:26:00;16.80;55.80
22645;DHT22;11489;50.834;6.752;2023-06-14T05:28:28;16.80;55.90
22645;DHT22;11489;50.834;6.752;2023-06-14T05:30:53;16.90;56.10
22645;DHT22;11489;50.834;6.752;2023-06-14T05:33:19;16.80;56.00
22645;DHT22;11489;50.834;6.752;2023-06-14T05:35:45;16.90;56.10
22645;DHT22;11489;50.834;6.752;2023-06-14T05:38:10;16.90;56.20
22645;DHT22;11489;50.834;6.752;2023-06-14T05:40:36;17.00;56.40
22645;DHT22;11489;50.834;6.752;2023-06-14T05:43:02;17.00;56.30
22645;DHT22;11489;50.834;6.752;2023-06-14T05:45:28;17.10;56.00
22645;DHT22;11489;50.834;6.752;2023-06-14T05:47:53;17.30;55.80
22645;DHT22;11489;50.834;6.752;2023-06-14T05:50:22;17.40;55.50
22645;DHT22;11489;50.834;6.752;2023-06-14T05:52:47;17.50;55.20
22645;DHT22;11489;50.834;6.752;2023-06-14T05:55:13;17.70;54.90
22645;DHT22;11489;50.834;6.752;2023-06-14T05:57:39;17.90;54.40
22645;DHT22;11489;50.834;6.752;2023-06-14T06:00:06;18.00;54.00
22645;DHT22;11489;50.834;6.752;2023-06-14T06:02:49;18.20;53.80
22645;DHT22;11489;50.834;6.752;2023-06-14T06:05:15;18.30;53.30
22645;DHT22;11489;50.834;6.752;2023-06-14T06:07:41;18.50;53.10
22645;DHT22;11489;50.834;6.752;2023-06-14T06:10:07;18.70;53.40
22645;DHT22;11489;50.834;6.752;2023-06-14T06:12:33;18.80;52.40
22645;DHT22;11489;50.834;6.752;2023-06-14T06:14:59;18.90;52.00
22645;DHT22;11489;50.834;6.752;2023-06-14T06:17:26;19.00;51.70
22645;DHT22;11489;50.834;6.752;2023-06-14T06:19:51;19.20;51.50
22645;DHT22;11489;50.834;6.752;2023-06-14T06:22:17;19.30;51.30
22645;DHT22;11489;50.834;6.752;2023-06-14T06:24:43;19.40;51.00
22645;DHT22;11489;50.834;6.752;2023-06-14T06:27:09;19.60;51.40
22645;DHT22;11489;50.834;6.752;2023-06-14T06:29:35;19.60;50.40
22645;DHT22;11489;50.834;6.752;2023-06-14T06:32:01;19.70;50.40
22645;DHT22;11489;50.834;6.752;2023-06-14T06:34:27;19.80;50.10
22645;DHT22;11489;50.834;6.752;2023-06-14T06:36:53;19.80;50.00
22645;DHT22;11489;50.834;6.752;2023-06-14T06:39:18;19.90;49.80
22645;DHT22;11489;50.834;6.752;2023-06-14T06:41:44;20.00;49.40
22645;DHT22;11489;50.834;6.752;2023-06-14T06:44:10;20.10;49.10
22645;DHT22;11489;50.834;6.752;2023-06-14T06:46:36;20.20;48.90
22645;DHT22;11489;50.834;6.752;2023-06-14T06:49:06;20.20;48.90
22645;DHT22;11489;50.834;6.752;2023-06-14T06:51:32;20.20;48.70
22645;DHT22;11489;50.834;6.752;2023-06-14T06:53:58;20.40;48.70
22645;DHT22;11489;50.834;6.752;2023-06-14T06:56:23;20.40;48.70
22645;DHT22;11489;50.834;6.752;2023-06-14T06:58:50;20.50;48.50
22645;DHT22;11489;50.834;6.752;2023-06-14T07:01:16;20.60;48.40
22645;DHT22;11489;50.834;6.752;2023-06-14T07:03:43;20.60;48.20
22645;DHT22;11489;50.834;6.752;2023-06-14T07:06:09;20.70;48.10
22645;DHT22;11489;50.834;6.752;2023-06-14T07:08:35;20.80;47.90
22645;DHT22;11489;50.834;6.752;2023-06-14T07:11:04;20.90;47.80
22645;DHT22;11489;50.834;6.752;2023-06-14T07:13:30;21.00;47.70
22645;DHT22;11489;50.834;6.752;2023-06-14T07:16:00;21.00;47.60
22645;DHT22;11489;50.834;6.752;2023-06-14T07:18:26;21.10;47.50
22645;DHT22;11489;50.834;6.752;2023-06-14T07:20:53;21.20;47.40
22645;DHT22;11489;50.834;6.752;2023-06-14T07:23:20;21.30;47.20
22645;DHT22;11489;50.834;6.752;2023-06-14T07:25:46;21.30;47.10
22645;DHT22;11489;50.834;6.752;2023-06-14T07:28:12;21.40;46.90
22645;DHT22;11489;50.834;6.752;2023-06-14T07:30:38;21.50;46.90
22645;DHT22;11489;50.834;6.752;2023-06-14T07:33:03;21.50;47.40
22645;DHT22;11489;50.834;6.752;2023-06-14T07:35:29;21.60;46.50
22645;DHT22;11489;50.834;6.752;2023-06-14T07:37:55;21.70;46.30
22645;DHT22;11489;50.834;6.752;2023-06-14T07:40:21;21.80;46.40
22645;DHT22;11489;50.834;6.752;2023-06-14T07:42:46;21.90;46.50
22645;DHT22;11489;50.834;6.752;2023-06-14T07:45:13;22.10;46.60
22645;DHT22;11489;50.834;6.752;2023-06-14T07:47:39;22.30;46.60
22645;DHT22;11489;50.834;6.752;2023-06-14T07:50:05;22.50;46.50
22645;DHT22;11489;50.834;6.752;2023-06-14T07:52:31;22.80;46.30
22645;DHT22;11489;50.834;6.752;2023-06-14T07:54:57;23.00;46.00
22645;DHT22;11489;50.834;6.752;2023-06-14T07:57:23;23.20;45.60
22645;DHT22;11489;50.834;6.752;2023-06-14T07:59:49;23.40;44.90
22645;DHT22;11489;50.834;6.752;2023-06-14T08:02:15;23.50;43.90
22645;DHT22;11489;50.834;6.752;2023-06-14T08:04:41;23.60;43.60
22645;DHT22;11489;50.834;6.752;2023-06-14T08:07:07;23.70;43.50
22645;DHT22;11489;50.834;6.752;2023-06-14T08:09:33;23.70;43.10
22645;DHT22;11489;50.834;6.752;2023-06-14T08:11:59;23.70;42.80
22645;DHT22;11489;50.834;6.752;2023-06-14T08:14:25;23.70;42.60
22645;DHT22;11489;50.834;6.752;2023-06-14T08:16:51;23.70;41.80
22645;DHT22;11489;50.834;6.752;2023-06-14T08:19:17;23.60;41.10
22645;DHT22;11489;50.834;6.752;2023-06-14T08:21:43;23.50;41.50
22645;DHT22;11489;50.834;6.752;2023-06-14T08:24:11;23.50;41.90
22645;DHT22;11489;50.834;6.752;2023-06-14T08:26:38;23.50;41.90
22645;DHT22;11489;50.834;6.752;2023-06-14T08:29:05;23.60;42.10
22645;DHT22;11489;50.834;6.752;2023-06-14T08:31:33;23.70;42.20
22645;DHT22;11489;50.834;6.752;2023-06-14T08:33:58;23.80;42.10
22645;DHT22;11489;50.834;6.752;2023-06-14T08:36:24;24.00;42.00
22645;DHT22;11489;50.834;6.752;2023-06-14T08:38:50;24.20;42.00
22645;DHT22;11489;50.834;6.752;2023-06-14T08:41:23;24.40;41.40
22645;DHT22;11489;50.834;6.752;2023-06-14T08:43:50;24.60;40.80
22645;DHT22;11489;50.834;6.752;2023-06-14T08:46:17;24.70;40.90
22645;DHT22;11489;50.834;6.752;2023-06-14T08:48:51;24.70;40.30
22645;DHT22;11489;50.834;6.752;2023-06-14T08:51:22;24.80;39.50
22645;DHT22;11489;50.834;6.752;2023-06-14T08:53:54;24.80;39.80
22645;DHT22;11489;50.834;6.752;2023-06-14T08:56:27;24.90;39.60
22645;DHT22;11489;50.834;6.752;2023-06-14T08:58:53;25.10;39.90
22645;DHT22;11489;50.834;6.752;2023-06-14T09:01:20;25.30;40.10
22645;DHT22;11489;50.834;6.752;2023-06-14T09:03:48;25.50;39.30
22645;DHT22;11489;50.834;6.752;2023-06-14T09:06:14;25.70;38.60
22645;DHT22;11489;50.834;6.752;2023-06-14T09:08:42;25.80;37.60
22645;DHT22;11489;50.834;6.752;2023-06-14T09:11:11;25.80;36.40
22645;DHT22;11489;50.834;6.752;2023-06-14T09:13:38;25.90;36.80
22645;DHT22;11489;50.834;6.752;2023-06-14T09:16:05;25.90;35.40
22645;DHT22;11489;50.834;6.752;2023-06-14T09:18:42;25.90;35.70
22645;DHT22;11489;50.834;6.752;2023-06-14T09:21:11;25.90;35.40
22645;DHT22;11489;50.834;6.752;2023-06-14T09:23:41;25.90;35.20
22645;DHT22;11489;50.834;6.752;2023-06-14T09:26:09;26.00;35.20
22645;DHT22;11489;50.834;6.752;2023-06-14T09:28:35;26.00;35.40
22645;DHT22;11489;50.834;6.752;2023-06-14T09:31:01;26.10;35.70
22645;DHT22;11489;50.834;6.752;2023-06-14T09:33:27;26.30;35.60
22645;DHT22;11489;50.834;6.752;2023-06-14T09:35:54;26.40;35.10
22645;DHT22;11489;50.834;6.752;2023-06-14T09:38:20;26.60;35.30
22645;DHT22;11489;50.834;6.752;2023-06-14T09:40:46;26.80;35.30
22645;DHT22;11489;50.834;6.752;2023-06-14T09:43:12;27.00;35.10
22645;DHT22;11489;50.834;6.752;2023-06-14T09:45:40;27.20;34.80
22645;DHT22;11489;50.834;6.752;2023-06-14T09:48:07;27.50;34.40
22645;DHT22;11489;50.834;6.752;2023-06-14T09:50:34;27.70;34.30
22645;DHT22;11489;50.834;6.752;2023-06-14T09:53:06;27.90;34.20
22645;DHT22;11489;50.834;6.752;2023-06-14T09:55:35;28.00;32.30
22645;DHT22;11489;50.834;6.752;2023-06-14T09:58:04;27.90;31.40
22645;DHT22;11489;50.834;6.752;2023-06-14T10:00:32;27.90;31.60
22645;DHT22;11489;50.834;6.752;2023-06-14T10:03:05;27.70;31.60
22645;DHT22;11489;50.834;6.752;2023-06-14T10:05:34;27.60;31.60
22645;DHT22;11489;50.834;6.752;2023-06-14T10:08:07;27.60;31.90
22645;DHT22;11489;50.834;6.752;2023-06-14T10:10:34;27.60;31.70
22645;DHT22;11489;50.834;6.752;2023-06-14T10:12:59;27.50;32.20
22645;DHT22;11489;50.834;6.752;2023-06-14T10:15:51;27.60;31.90
22645;DHT22;11489;50.834;6.752;2023-06-14T10:24:03;27.40;31.60
22645;DHT22;11489;50.834;6.752;2023-06-14T10:26:30;27.50;32.20
22645;DHT22;11489;50.834;6.752;2023-06-14T10:31:23;27.90;32.40
22645;DHT22;11489;50.834;6.752;2023-06-14T10:34:04;28.00;31.30
22645;DHT22;11489;50.834;6.752;2023-06-14T10:36:31;28.00;30.50
22645;DHT22;11489;50.834;6.752;2023-06-14T10:39:12;27.90;30.00
22645;DHT22;11489;50.834;6.752;2023-06-14T10:41:40;27.80;30.10
22645;DHT22;11489;50.834;6.752;2023-06-14T10:46:38;27.60;29.60
22645;DHT22;11489;50.834;6.752;2023-06-14T10:49:04;27.50;29.40
22645;DHT22;11489;50.834;6.752;2023-06-14T10:51:39;27.40;29.80
22645;DHT22;11489;50.834;6.752;2023-06-14T10:54:12;27.20;29.50
22645;DHT22;11489;50.834;6.752;2023-06-14T10:56:49;27.10;30.00
22645;DHT22;11489;50.834;6.752;2023-06-14T10:59:16;27.10;30.10
22645;DHT22;11489;50.834;6.752;2023-06-14T11:04:52;27.10;30.00
22645;DHT22;11489;50.834;6.752;2023-06-14T11:10:10;27.10;30.00
22645;DHT22;11489;50.834;6.752;2023-06-14T11:12:41;27.10;30.30
22645;DHT22;11489;50.834;6.752;2023-06-14T11:15:11;27.10;30.10
22645;DHT22;11489;50.834;6.752;2023-06-14T11:17:36;27.10;30.40
22645;DHT22;11489;50.834;6.752;2023-06-14T11:20:12;27.20;30.30
22645;DHT22;11489;50.834;6.752;2023-06-14T11:22:45;27.20;30.00
22645;DHT22;11489;50.834;6.752;2023-06-14T11:25:14;27.20;29.90
22645;DHT22;11489;50.834;6.752;2023-06-14T11:27:43;27.20;29.40
22645;DHT22;11489;50.834;6.752;2023-06-14T11:30:10;27.20;29.50
22645;DHT22;11489;50.834;6.752;2023-06-14T11:32:36;27.20;29.80
22645;DHT22;11489;50.834;6.752;2023-06-14T11:35:03;27.20;30.00
22645;DHT22;11489;50.834;6.752;2023-06-14T11:37:30;27.30;30.00
22645;DHT22;11489;50.834;6.752;2023-06-14T11:39:59;27.40;30.20
22645;DHT22;11489;50.834;6.752;2023-06-14T11:42:27;27.50;30.50
22645;DHT22;11489;50.834;6.752;2023-06-14T11:44:54;27.60;30.30
22645;DHT22;11489;50.834;6.752;2023-06-14T11:47:20;27.60;30.50
22645;DHT22;11489;50.834;6.752;2023-06-14T11:49:46;27.70;30.80
22645;DHT22;11489;50.834;6.752;2023-06-14T11:52:12;27.70;30.60
22645;DHT22;11489;50.834;6.752;2023-06-14T11:54:38;27.90;30.80
22645;DHT22;11489;50.834;6.752;2023-06-14T11:57:06;28.10;30.70
22645;DHT22;11489;50.834;6.752;2023-06-14T11:59:38;28.20;30.30
22645;DHT22;11489;50.834;6.752;2023-06-14T12:02:04;28.30;30.10
22645;DHT22;11489;50.834;6.752;2023-06-14T12:04:30;28.50;30.40
22645;DHT22;11489;50.834;6.752;2023-06-14T12:06:56;28.70;30.50
22645;DHT22;11489;50.834;6.752;2023-06-14T12:09:23;28.70;30.20
22645;DHT22;11489;50.834;6.752;2023-06-14T12:11:59;28.80;30.40
22645;DHT22;11489;50.834;6.752;2023-06-14T12:14:32;28.70;30.00
22645;DHT22;11489;50.834;6.752;2023-06-14T12:17:05;28.70;29.80
22645;DHT22;11489;50.834;6.752;2023-06-14T12:19:32;28.60;29.70
22645;DHT22;11489;50.834;6.752;2023-06-14T12:22:01;28.50;29.80
22645;DHT22;11489;50.834;6.752;2023-06-14T12:24:29;28.50;29.90
22645;DHT22;11489;50.834;6.752;2023-06-14T12:26:57;28.40;29.90
22645;DHT22;11489;50.834;6.752;2023-06-14T12:29:25;28.40;30.00
22645;DHT22;11489;50.834;6.752;2023-06-14T12:31:51;28.40;30.40
22645;DHT22;11489;50.834;6.752;2023-06-14T12:34:20;28.50;30.30
22645;DHT22;11489;50.834;6.752;2023-06-14T12:36:45;28.50;30.30
22645;DHT22;11489;50.834;6.752;2023-06-14T12:39:12;28.60;30.40
22645;DHT22;11489;50.834;6.752;2023-06-14T12:41:38;28.70;30.20
22645;DHT22;11489;50.834;6.752;2023-06-14T12:44:04;28.80;30.50
22645;DHT22;11489;50.834;6.752;2023-06-14T12:46:30;28.90;30.50
22645;DHT22;11489;50.834;6.752;2023-06-14T12:48:56;29.00;30.20
22645;DHT22;11489;50.834;6.752;2023-06-14T12:51:22;28.90;29.90
22645;DHT22;11489;50.834;6.752;2023-06-14T12:53:49;28.70;29.70
22645;DHT22;11489;50.834;6.752;2023-06-14T12:56:15;28.50;29.80
22645;DHT22;11489;50.834;6.752;2023-06-14T12:58:42;28.30;29.90
22645;DHT22;11489;50.834;6.752;2023-06-14T13:01:07;28.10;30.00
22645;DHT22;11489;50.834;6.752;2023-06-14T13:03:33;28.00;30.00
22645;DHT22;11489;50.834;6.752;2023-06-14T13:06:00;28.00;30.30
22645;DHT22;11489;50.834;6.752;2023-06-14T13:08:27;28.10;30.70
22645;DHT22;11489;50.834;6.752;2023-06-14T13:10:53;28.20;31.70
22645;DHT22;11489;50.834;6.752;2023-06-14T13:13:19;28.50;31.20
22645;DHT22;11489;50.834;6.752;2023-06-14T13:15:45;28.60;30.90
22645;DHT22;11489;50.834;6.752;2023-06-14T13:18:12;28.60;30.60
22645;DHT22;11489;50.834;6.752;2023-06-14T13:20:40;28.70;30.60
22645;DHT22;11489;50.834;6.752;2023-06-14T13:23:06;28.70;30.60
22645;DHT22;11489;50.834;6.752;2023-06-14T13:25:37;28.70;30.70
22645;DHT22;11489;50.834;6.752;2023-06-14T13:28:04;28.80;30.40
22645;DHT22;11489;50.834;6.752;2023-06-14T13:30:30;28.90;30.50
22645;DHT22;11489;50.834;6.752;2023-06-14T13:32:56;29.00;30.50
22645;DHT22;11489;50.834;6.752;2023-06-14T13:35:23;29.10;30.40
22645;DHT22;11489;50.834;6.752;2023-06-14T13:37:48;29.10;30.30
22645;DHT22;11489;50.834;6.752;2023-06-14T13:40:15;29.20;30.30
22645;DHT22;11489;50.834;6.752;2023-06-14T13:42:41;29.30;30.10
22645;DHT22;11489;50.834;6.752;2023-06-14T13:45:08;29.20;29.90
22645;DHT22;11489;50.834;6.752;2023-06-14T13:47:34;29.10;29.70
22645;DHT22;11489;50.834;6.752;2023-06-14T13:49:59;29.00;29.80
22645;DHT22;11489;50.834;6.752;2023-06-14T13:52:25;28.90;29.90
22645;DHT22;11489;50.834;6.752;2023-06-14T13:54:51;28.90;30.00
22645;DHT22;11489;50.834;6.752;2023-06-14T13:57:17;29.00;30.00
22645;DHT22;11489;50.834;6.752;2023-06-14T13:59:44;29.00;29.90
22645;DHT22;11489;50.834;6.752;2023-06-14T14:02:10;28.90;29.80
22645;DHT22;11489;50.834;6.752;2023-06-14T14:04:37;28.90;29.50
22645;DHT22;11489;50.834;6.752;2023-06-14T14:07:05;28.80;30.00
22645;DHT22;11489;50.834;6.752;2023-06-14T14:09:32;28.70;29.70
22645;DHT22;11489;50.834;6.752;2023-06-14T14:11:58;28.70;29.70
22645;DHT22;11489;50.834;6.752;2023-06-14T14:14:24;28.60;29.60
22645;DHT22;11489;50.834;6.752;2023-06-14T14:16:50;28.60;29.50
22645;DHT22;11489;50.834;6.752;2023-06-14T14:19:23;28.50;29.40
22645;DHT22;11489;50.834;6.752;2023-06-14T14:21:49;28.40;29.40
22645;DHT22;11489;50.834;6.752;2023-06-14T14:24:15;28.40;29.50
22645;DHT22;11489;50.834;6.752;2023-06-14T14:26:41;28.50;29.60
22645;DHT22;11489;50.834;6.752;2023-06-14T14:29:07;28.50;29.30
22645;DHT22;11489;50.834;6.752;2023-06-14T14:31:34;28.60;29.30
22645;DHT22;11489;50.834;6.752;2023-06-14T14:33:59;28.60;29.50
22645;DHT22;11489;50.834;6.752;2023-06-14T14:36:25;28.70;29.50
22645;DHT22;11489;50.834;6.752;2023-06-14T14:38:50;28.70;29.50
22645;DHT22;11489;50.834;6.752;2023-06-14T14:41:17;28.80;29.50
22645;DHT22;11489;50.834;6.752;2023-06-14T14:43:43;28.80;29.40
22645;DHT22;11489;50.834;6.752;2023-06-14T14:46:11;28.90;29.20
22645;DHT22;11489;50.834;6.752;2023-06-14T14:48:37;28.90;29.10
22645;DHT22;11489;50.834;6.752;2023-06-14T14:51:03;28.90;29.40
22645;DHT22;11489;50.834;6.752;2023-06-14T14:53:28;29.00;29.60
22645;DHT22;11489;50.834;6.752;2023-06-14T14:55:54;29.20;29.60
22645;DHT22;11489;50.834;6.752;2023-06-14T14:58:20;29.40;29.40
22645;DHT22;11489;50.834;6.752;2023-06-14T15:00:46;29.50;29.30
22645;DHT22;11489;50.834;6.752;2023-06-14T15:03:13;29.50;29.30
22645;DHT22;11489;50.834;6.752;2023-06-14T15:05:38;29.50;29.30
22645;DHT22;11489;50.834;6.752;2023-06-14T15:08:05;29.60;29.00
22645;DHT22;11489;50.834;6.752;2023-06-14T15:10:37;29.50;28.60
22645;DHT22;11489;50.834;6.752;2023-06-14T15:13:06;29.50;28.60
22645;DHT22;11489;50.834;6.752;2023-06-14T15:15:31;29.40;28.70
22645;DHT22;11489;50.834;6.752;2023-06-14T15:17:57;29.30;28.70
22645;DHT22;11489;50.834;6.752;2023-06-14T15:20:22;29.30;28.80
22645;DHT22;11489;50.834;6.752;2023-06-14T15:22:48;29.30;28.80
22645;DHT22;11489;50.834;6.752;2023-06-14T15:25:14;29.40;28.70
22645;DHT22;11489;50.834;6.752;2023-06-14T15:27:39;29.30;28.50
22645;DHT22;11489;50.834;6.752;2023-06-14T15:30:06;29.20;28.50
22645;DHT22;11489;50.834;6.752;2023-06-14T15:32:31;29.10;28.50
22645;DHT22;11489;50.834;6.752;2023-06-14T15:34:57;28.90;28.40
22645;DHT22;11489;50.834;6.752;2023-06-14T15:37:23;28.80;28.60
22645;DHT22;11489;50.834;6.752;2023-06-14T15:39:48;28.70;28.70
22645;DHT22;11489;50.834;6.752;2023-06-14T15:42:14;28.60;28.80
22645;DHT22;11489;50.834;6.752;2023-06-14T15:44:40;28.50;28.80
22645;DHT22;11489;50.834;6.752;2023-06-14T15:47:07;28.30;28.90
22645;DHT22;11489;50.834;6.752;2023-06-14T15:49:33;28.30;29.20